createdAt,value
2018-07-07T00:01:29.131Z,71.86
2018-07-07T00:03:57.136Z,71.64
2018-07-07T00:06:25.223Z,72.09
2018-07-07T00:08:53.191Z,73.62
2018-07-07T00:11:21.144Z,74.15
2018-07-07T00:13:49.380Z,73.78
2018-07-07T00:16:18.278Z,73.15
2018-07-07T00:18:46.254Z,73.42
2018-07-07T00:21:14.570Z,73.45
2018-07-07T00:23:42.627Z,72.87
2018-07-07T00:26:10.634Z,73.42
2018-07-07T00:28:38.612Z,72.54
2018-07-07T00:31:06.577Z,72.71
2018-07-07T00:33:35.247Z,72.74
2018-07-07T00:36:03.329Z,72.67
2018-07-07T00:38:31.274Z,72.43
2018-07-07T00:40:59.265Z,72.78
2018-07-07T00:43:27.206Z,73.51
2018-07-07T00:45:55.298Z,73.01
2018-07-07T00:48:25.132Z,72.97
2018-07-07T00:50:53.064Z,72.23
2018-07-07T00:53:20.975Z,72.96
2018-07-07T00:55:48.879Z,72.36
2018-07-07T00:58:16.811Z,72.31
2018-07-07T01:00:49.363Z,72.07
2018-07-07T01:03:18.489Z,71.88
2018-07-07T01:05:47.437Z,72.35
2018-07-07T01:08:16.156Z,71.96
2018-07-07T01:10:44.329Z,71.62
2018-07-07T01:13:12.591Z,72.62
2018-07-07T01:15:40.900Z,73.97
2018-07-07T01:18:09.392Z,73.98
2018-07-07T01:20:37.323Z,74.60
2018-07-07T01:23:05.612Z,74.51
2018-07-07T01:25:33.798Z,74.60
2018-07-07T01:28:01.735Z,74.21
2018-07-07T01:30:30.538Z,74.18
2018-07-07T01:32:58.495Z,74.70
2018-07-07T01:35:26.488Z,74.67
2018-07-07T01:37:54.457Z,74.79
2018-07-07T01:40:22.409Z,75.01
2018-07-07T01:42:50.586Z,74.77
2018-07-07T01:45:18.610Z,74.60
2018-07-07T01:47:46.514Z,74.29
2018-07-07T01:50:14.543Z,74.67
2018-07-07T01:52:42.459Z,74.74
2018-07-07T01:55:10.470Z,75.10
2018-07-07T01:57:38.770Z,75.26
2018-07-07T02:00:06.866Z,75.38
2018-07-07T02:02:34.865Z,75.66
2018-07-07T02:05:02.863Z,75.53
2018-07-07T02:07:30.762Z,75.80
2018-07-07T02:09:58.733Z,76.32
2018-07-07T02:12:26.714Z,76.01
2018-07-07T02:14:54.796Z,76.12
2018-07-07T02:17:22.815Z,75.47
2018-07-07T02:19:50.824Z,75.73
2018-07-07T02:22:21.908Z,75.37
2018-07-07T02:24:50.648Z,75.62
2018-07-07T02:27:18.755Z,76.34
2018-07-07T02:29:47.155Z,76.80
2018-07-07T02:32:15.198Z,77.19
2018-07-07T02:34:43.414Z,77.31
2018-07-07T02:37:11.338Z,77.08
2018-07-07T02:39:39.333Z,76.47
2018-07-07T02:42:07.253Z,76.40
2018-07-07T02:44:35.831Z,76.52
2018-07-07T02:47:03.784Z,77.23
2018-07-07T02:49:31.782Z,77.21
2018-07-07T02:51:59.721Z,77.31
2018-07-07T02:54:27.649Z,77.59
2018-07-07T02:56:55.605Z,78.08
2018-07-07T02:59:23.625Z,77.22
2018-07-07T03:01:51.632Z,77.75
2018-07-07T03:04:19.986Z,77.72
2018-07-07T03:06:47.935Z,77.42
2018-07-07T03:09:15.901Z,77.31
2018-07-07T03:11:44.264Z,77.26
2018-07-07T03:14:12.179Z,77.16
2018-07-07T03:16:40.129Z,77.03
2018-07-07T03:19:08.240Z,77.87
2018-07-07T03:21:36.266Z,78.19
2018-07-07T03:24:04.195Z,77.84
2018-07-07T03:26:32.090Z,79.02
2018-07-07T03:28:59.969Z,78.46
2018-07-07T03:31:27.922Z,79.11
2018-07-07T03:33:56.788Z,79.00
2018-07-07T03:36:24.744Z,78.16
2018-07-07T03:38:52.746Z,77.71
2018-07-07T03:41:20.796Z,78.45
2018-07-07T03:43:48.704Z,78.30
2018-07-07T03:46:16.626Z,78.11
2018-07-07T03:48:44.611Z,77.44
2018-07-07T03:51:12.552Z,77.24
2018-07-07T03:53:40.559Z,76.10
2018-07-07T03:56:09.272Z,74.78
2018-07-07T03:58:37.213Z,75.78
2018-07-07T04:01:05.191Z,75.68
2018-07-07T04:03:33.129Z,75.92
2018-07-07T04:06:01.026Z,76.58
2018-07-07T04:08:29.106Z,76.68
2018-07-07T04:10:57.059Z,76.73
2018-07-07T04:13:24.961Z,76.67
2018-07-07T04:15:53.656Z,76.40
2018-07-07T04:18:28.251Z,75.00
2018-07-07T04:20:56.244Z,75.18
2018-07-07T04:23:24.186Z,74.83
2018-07-07T04:25:52.959Z,74.13
2018-07-07T04:28:20.874Z,74.56
2018-07-07T04:30:48.812Z,74.56
2018-07-07T04:33:16.768Z,73.90
2018-07-07T04:35:44.889Z,73.05
2018-07-07T04:38:12.895Z,73.32
2018-07-07T04:40:40.770Z,73.25
2018-07-07T04:43:08.750Z,73.13
2018-07-07T04:45:36.716Z,73.14
2018-07-07T04:48:04.777Z,72.65
2018-07-07T04:50:33.207Z,72.55
2018-07-07T04:53:01.166Z,72.02
2018-07-07T04:55:29.177Z,71.74
2018-07-07T04:57:57.073Z,71.03
2018-07-07T05:00:25.009Z,70.67
2018-07-07T05:02:52.888Z,70.61
2018-07-07T05:05:20.887Z,71.57
2018-07-07T05:07:48.890Z,71.01
2018-07-07T05:10:16.901Z,71.21
2018-07-07T05:12:44.884Z,70.17
2018-07-07T05:15:12.863Z,70.75
2018-07-07T05:17:40.901Z,70.66
2018-07-07T05:20:08.868Z,70.94
2018-07-07T05:22:36.762Z,70.08
2018-07-07T05:25:04.740Z,69.94
2018-07-07T05:27:32.738Z,69.47
2018-07-07T05:30:00.987Z,68.81
2018-07-07T05:32:29.054Z,69.48
2018-07-07T05:34:57.032Z,68.57
2018-07-07T05:37:24.965Z,68.69
2018-07-07T05:39:53.040Z,68.58
2018-07-07T05:42:21.006Z,68.04
2018-07-07T05:44:48.965Z,66.98
2018-07-07T05:47:16.926Z,67.69
2018-07-07T05:49:46.002Z,66.21
2018-07-07T05:52:14.363Z,65.49
2018-07-07T05:54:43.847Z,64.17
2018-07-07T05:57:11.987Z,65.09
2018-07-07T05:59:39.997Z,63.97
2018-07-07T06:02:07.926Z,64.44
2018-07-07T06:04:35.952Z,63.79
2018-07-07T06:07:04.280Z,63.87
2018-07-07T06:09:32.586Z,63.27
2018-07-07T06:12:00.590Z,62.66
2018-07-07T06:14:28.588Z,62.74
2018-07-07T06:16:57.135Z,63.12
2018-07-07T06:19:25.111Z,61.51
2018-07-07T06:21:53.357Z,60.85
2018-07-07T06:24:22.288Z,61.77
2018-07-07T06:26:50.375Z,59.58
2018-07-07T06:29:18.251Z,60.39
2018-07-07T06:31:46.286Z,60.21
2018-07-07T06:34:14.295Z,59.45
2018-07-07T06:36:42.370Z,60.91
2018-07-07T06:39:15.421Z,58.56
2018-07-07T06:41:43.571Z,60.78
2018-07-07T06:44:11.747Z,60.76
2018-07-07T06:46:39.662Z,60.81
2018-07-07T06:49:07.688Z,59.97
2018-07-07T06:51:35.758Z,60.53
2018-07-07T06:54:03.978Z,61.37
2018-07-07T06:56:32.577Z,61.03
2018-07-07T06:59:01.393Z,60.37
2018-07-07T07:01:29.273Z,60.67
2018-07-07T07:03:57.221Z,59.76
2018-07-07T07:06:25.699Z,59.69
2018-07-07T07:08:54.542Z,59.07
2018-07-07T07:11:22.601Z,59.50
2018-07-07T07:13:50.568Z,58.20
2018-07-07T07:16:18.557Z,58.02
2018-07-07T07:18:47.272Z,57.08
2018-07-07T07:21:15.467Z,56.37
2018-07-07T07:23:43.462Z,56.31
2018-07-07T07:26:11.480Z,56.90
2018-07-07T07:28:39.557Z,56.48
2018-07-07T07:31:07.630Z,55.10
2018-07-07T07:33:35.520Z,54.92
2018-07-07T07:36:07.748Z,55.11
2018-07-07T07:38:35.761Z,54.86
2018-07-07T07:41:03.823Z,54.15
2018-07-07T07:43:31.910Z,54.40
2018-07-07T07:45:59.811Z,55.65
2018-07-07T07:48:27.830Z,54.98
2018-07-07T07:50:56.265Z,54.36
2018-07-07T07:53:24.241Z,53.75
2018-07-07T07:55:52.433Z,52.56
2018-07-07T07:58:20.517Z,52.29
2018-07-07T08:00:48.544Z,51.06
2018-07-07T08:03:16.500Z,49.66
2018-07-07T08:05:44.570Z,50.39
2018-07-07T08:08:12.579Z,50.13
2018-07-07T08:10:40.580Z,49.60
2018-07-07T08:13:08.555Z,49.25
2018-07-07T08:15:36.535Z,49.06
2018-07-07T08:18:04.978Z,48.41
2018-07-07T08:20:32.959Z,48.08
2018-07-07T08:23:00.905Z,48.70
2018-07-07T08:25:29.466Z,47.51
2018-07-07T08:27:57.434Z,47.56
2018-07-07T08:30:25.584Z,47.92
2018-07-07T08:32:53.550Z,49.54
2018-07-07T08:35:21.654Z,51.27
2018-07-07T08:37:49.647Z,51.48
2018-07-07T08:42:56.028Z,46.87
2018-07-07T08:45:24.020Z,47.95
2018-07-07T08:47:52.009Z,48.58
2018-07-07T08:50:19.984Z,47.55
2018-07-07T08:52:48.203Z,47.20
2018-07-07T08:55:16.139Z,47.25
2018-07-07T08:57:44.127Z,48.29
2018-07-07T09:00:12.086Z,45.81
2018-07-07T09:02:40.107Z,45.38
2018-07-07T09:05:08.066Z,45.77
2018-07-07T09:07:36.092Z,45.86
2018-07-07T09:10:04.221Z,46.11
2018-07-07T09:12:33.070Z,45.17
2018-07-07T09:15:01.038Z,46.04
2018-07-07T09:17:29.087Z,45.91
2018-07-07T09:19:57.066Z,43.34
2018-07-07T09:22:24.988Z,41.97
2018-07-07T09:24:53.030Z,43.25
2018-07-07T09:27:21.105Z,44.88
2018-07-07T09:29:49.111Z,43.55
2018-07-07T09:32:17.123Z,43.30
2018-07-07T09:34:45.225Z,43.22
2018-07-07T09:37:13.269Z,41.53
2018-07-07T09:39:41.190Z,42.86
2018-07-07T09:42:09.116Z,43.16
2018-07-07T09:44:37.909Z,44.57
2018-07-07T09:47:05.899Z,43.62
2018-07-07T09:49:33.908Z,43.24
2018-07-07T09:52:01.871Z,43.17
2018-07-07T09:54:30.206Z,42.96
2018-07-07T09:56:58.354Z,44.60
2018-07-07T09:59:26.315Z,44.10
2018-07-07T10:01:54.460Z,43.96
2018-07-07T10:04:23.044Z,42.45
2018-07-07T10:06:51.074Z,43.92
2018-07-07T10:09:19.145Z,43.49
2018-07-07T10:11:47.130Z,44.81
2018-07-07T10:14:15.096Z,44.46
2018-07-07T10:16:44.220Z,43.84
2018-07-07T10:19:12.800Z,43.11
2018-07-07T10:21:42.063Z,43.36
2018-07-07T10:24:10.188Z,43.56
2018-07-07T10:26:38.277Z,43.08
2018-07-07T10:29:06.427Z,42.13
2018-07-07T10:31:34.746Z,41.49
2018-07-07T10:34:02.767Z,41.85
2018-07-07T10:36:30.843Z,42.49
2018-07-07T10:38:58.878Z,43.55
2018-07-07T10:41:26.870Z,45.20
2018-07-07T10:43:55.502Z,45.60
2018-07-07T10:46:23.675Z,43.36
2018-07-07T10:48:51.633Z,44.80
2018-07-07T10:51:19.660Z,45.13
2018-07-07T10:53:47.696Z,41.67
2018-07-07T10:56:15.794Z,43.21
2018-07-07T10:58:43.863Z,43.72
2018-07-07T11:01:11.865Z,42.13
2018-07-07T11:03:40.196Z,40.75
2018-07-07T11:06:08.157Z,40.23
2018-07-07T11:08:36.598Z,39.51
2018-07-07T11:11:04.802Z,39.30
2018-07-07T11:13:32.771Z,39.27
2018-07-07T11:16:01.092Z,39.14
2018-07-07T11:18:30.152Z,38.64
2018-07-07T11:20:58.960Z,38.03
2018-07-07T11:23:26.924Z,38.17
2018-07-07T11:25:54.931Z,39.02
2018-07-07T11:28:22.902Z,37.77
2018-07-07T11:30:51.111Z,38.29
2018-07-07T11:33:19.136Z,36.56
2018-07-07T11:35:47.512Z,37.00
2018-07-07T11:38:15.709Z,38.36
2018-07-07T11:40:43.918Z,37.60
2018-07-07T11:43:12.108Z,36.80
2018-07-07T11:45:40.074Z,37.34
2018-07-07T11:48:08.220Z,36.59
2018-07-07T11:50:37.308Z,35.49
2018-07-07T11:53:06.232Z,37.54
2018-07-07T11:55:34.194Z,36.81
2018-07-07T11:58:03.289Z,36.21
2018-07-07T12:00:31.435Z,36.78
2018-07-07T12:03:00.959Z,35.81
2018-07-07T12:05:29.116Z,37.25
2018-07-07T12:08:00.902Z,37.85
2018-07-07T12:10:25.863Z,39.92
2018-07-07T12:12:53.797Z,40.85
2018-07-07T12:15:22.682Z,41.94
2018-07-07T12:17:50.724Z,42.75
2018-07-07T12:20:18.776Z,42.71
2018-07-07T12:22:47.290Z,42.92
2018-07-07T12:25:15.424Z,42.72
2018-07-07T12:27:44.628Z,43.72
2018-07-07T12:30:12.612Z,43.37
2018-07-07T12:32:40.667Z,44.46
2018-07-07T12:35:08.634Z,46.97
2018-07-07T12:37:37.629Z,53.86
2018-07-07T12:40:05.704Z,61.62
2018-07-07T12:42:34.127Z,67.46
2018-07-07T12:45:02.214Z,69.84
2018-07-07T12:47:30.280Z,70.76
2018-07-07T12:49:59.610Z,72.60
2018-07-07T12:52:27.698Z,71.91
2018-07-07T12:54:55.700Z,70.29
2018-07-07T12:57:23.714Z,71.47
2018-07-07T12:59:51.726Z,72.53
2018-07-07T13:02:19.695Z,73.08
2018-07-07T13:04:47.630Z,75.88
2018-07-07T13:07:15.668Z,78.51
2018-07-07T13:09:43.680Z,79.18
2018-07-07T13:12:11.619Z,82.58
2018-07-07T13:14:39.570Z,80.54
2018-07-07T13:17:07.871Z,82.62
2018-07-07T13:19:35.805Z,82.91
2018-07-07T13:22:04.027Z,82.82
2018-07-07T13:24:31.999Z,82.51
2018-07-07T13:27:01.514Z,82.88
2018-07-07T13:29:29.552Z,82.20
2018-07-07T13:31:57.527Z,83.16
2018-07-07T13:34:25.567Z,82.93
2018-07-07T13:36:53.574Z,80.24
2018-07-07T13:39:21.664Z,81.02
2018-07-07T13:41:49.682Z,81.11
2018-07-07T13:44:17.633Z,79.95
2018-07-07T13:46:45.845Z,79.76
2018-07-07T13:49:13.741Z,75.60
2018-07-07T13:51:42.009Z,75.48
2018-07-07T13:54:10.019Z,73.47
2018-07-07T13:56:37.964Z,71.52
2018-07-07T13:59:05.950Z,71.46
2018-07-07T14:01:33.912Z,71.87
2018-07-07T14:04:02.075Z,72.69
2018-07-07T14:06:30.617Z,72.66
2018-07-07T14:08:58.640Z,73.16
2018-07-07T14:11:26.590Z,72.94
2018-07-07T14:13:54.573Z,71.65
2018-07-07T14:16:22.565Z,74.24
2018-07-07T14:18:50.501Z,74.62
2018-07-07T14:21:18.500Z,73.02
2018-07-07T14:23:46.434Z,70.86
2018-07-07T14:26:14.433Z,69.21
2018-07-07T14:28:42.364Z,70.57
2018-07-07T14:31:10.403Z,68.90
2018-07-07T14:33:38.460Z,70.04
2018-07-07T14:36:06.432Z,68.46
2018-07-07T14:38:36.534Z,69.59
2018-07-07T14:41:13.629Z,70.50
2018-07-07T14:43:56.250Z,70.98
2018-07-07T14:46:24.654Z,71.16
2018-07-07T14:48:52.691Z,70.84
2018-07-07T14:51:20.672Z,69.49
2018-07-07T14:53:49.029Z,68.09
2018-07-07T14:56:18.501Z,68.87
2018-07-07T14:58:46.592Z,69.01
2018-07-07T15:01:14.693Z,70.53
2018-07-07T15:03:43.672Z,70.65
2018-07-07T15:06:11.764Z,70.93
2018-07-07T15:08:39.781Z,71.25
2018-07-07T15:11:08.239Z,70.27
2018-07-07T15:13:36.236Z,72.24
2018-07-07T15:16:04.198Z,71.58
2018-07-07T15:18:33.218Z,71.25
2018-07-07T15:21:01.349Z,70.81
2018-07-07T15:23:29.641Z,70.91
2018-07-07T15:25:57.842Z,70.31
2018-07-07T15:28:25.805Z,71.37
2018-07-07T15:30:53.852Z,73.16
2018-07-07T15:33:21.870Z,76.12
2018-07-07T15:35:49.970Z,76.45
2018-07-07T15:38:17.909Z,77.07
2018-07-07T15:40:45.971Z,76.84
2018-07-07T15:43:13.934Z,75.70
2018-07-07T15:45:42.005Z,75.74
2018-07-07T15:48:10.173Z,76.14
2018-07-07T15:50:38.624Z,76.22
2018-07-07T15:53:06.760Z,76.47
2018-07-07T15:55:34.714Z,76.43
2018-07-07T15:58:02.805Z,76.01
2018-07-07T16:00:30.794Z,76.75
2018-07-07T16:02:58.780Z,76.72
2018-07-07T16:05:26.912Z,76.29
2018-07-07T16:07:55.204Z,77.83
2018-07-07T16:10:23.243Z,78.89
2018-07-07T16:12:51.831Z,79.34
2018-07-07T16:15:19.913Z,78.94
2018-07-07T16:17:48.069Z,77.87
2018-07-07T16:20:16.038Z,78.87
2018-07-07T16:22:44.312Z,79.38
2018-07-07T16:25:12.273Z,79.04
2018-07-07T16:27:40.820Z,78.82
2018-07-07T16:30:08.965Z,78.20
2018-07-07T16:32:37.014Z,76.71
2018-07-07T16:35:05.099Z,76.98
2018-07-07T16:37:33.085Z,77.34
2018-07-07T16:40:01.603Z,76.48
2018-07-07T16:42:29.754Z,77.09
2018-07-07T16:44:58.348Z,76.54
2018-07-07T16:47:26.478Z,75.99
2018-07-07T16:49:54.893Z,76.31
2018-07-07T16:52:23.264Z,76.27
2018-07-07T16:54:51.473Z,76.32
2018-07-07T16:57:19.653Z,76.14
2018-07-07T16:59:47.790Z,75.45
2018-07-07T17:02:16.990Z,75.30
2018-07-07T17:04:45.250Z,74.87
2018-07-07T17:07:14.298Z,75.08
2018-07-07T17:09:42.473Z,74.77
2018-07-07T17:12:10.764Z,73.92
2018-07-07T17:14:38.853Z,73.98
2018-07-07T17:17:07.004Z,73.28
2018-07-07T17:19:35.101Z,73.46
2018-07-07T17:22:03.453Z,73.38
2018-07-07T17:24:31.989Z,72.60
2018-07-07T17:27:00.340Z,72.58
2018-07-07T17:29:28.593Z,72.72
2018-07-07T17:31:57.296Z,73.12
2018-07-07T17:34:26.506Z,73.98
2018-07-07T17:36:54.848Z,74.53
2018-07-07T17:39:22.871Z,74.87
2018-07-07T17:41:51.315Z,75.46
2018-07-07T17:44:19.498Z,74.37
2018-07-07T17:46:47.865Z,72.78
2018-07-07T17:49:17.679Z,73.77
2018-07-07T17:51:45.841Z,75.03
2018-07-07T17:54:14.381Z,74.86
2018-07-07T17:56:42.759Z,74.85
2018-07-07T17:59:10.818Z,75.13
2018-07-07T18:01:39.326Z,73.70
2018-07-07T18:04:07.456Z,74.40
2018-07-07T18:06:35.436Z,74.41
2018-07-07T18:09:04.097Z,72.92
2018-07-07T18:11:32.509Z,73.39
2018-07-07T18:14:00.471Z,72.51
2018-07-07T18:16:28.513Z,73.11
2018-07-07T18:18:56.447Z,72.51
2018-07-07T18:21:24.533Z,72.20
2018-07-07T18:23:52.524Z,71.64
2018-07-07T18:26:20.540Z,72.24
2018-07-07T18:28:49.110Z,71.34
2018-07-07T18:31:17.611Z,70.74
2018-07-07T18:33:45.587Z,70.32
2018-07-07T18:36:13.613Z,70.02
2018-07-07T18:38:42.637Z,69.25
2018-07-07T18:41:10.555Z,69.57
2018-07-07T18:43:38.584Z,69.77
2018-07-07T18:46:06.876Z,69.68
2018-07-07T18:48:34.859Z,70.37
2018-07-07T18:51:02.836Z,69.43
2018-07-07T18:53:31.006Z,67.82
2018-07-07T18:55:58.998Z,67.94
2018-07-07T18:58:26.987Z,67.49
2018-07-07T19:00:55.044Z,68.55
2018-07-07T19:03:23.057Z,68.23
2018-07-07T19:05:51.083Z,68.07
2018-07-07T19:08:19.106Z,68.88
2018-07-07T19:10:47.092Z,68.87
2018-07-07T19:13:15.107Z,69.83
2018-07-07T19:15:47.231Z,68.89
2018-07-07T19:18:16.432Z,69.52
2018-07-07T19:20:49.945Z,70.98
2018-07-07T19:23:23.559Z,71.74
2018-07-07T19:25:57.376Z,69.45
2018-07-07T19:28:25.441Z,70.79
2018-07-07T19:30:53.308Z,70.15
2018-07-07T19:33:26.869Z,70.45
2018-07-07T19:36:00.400Z,70.94
2018-07-07T19:38:28.436Z,70.68
2018-07-07T19:40:56.439Z,69.43
2018-07-07T19:43:25.226Z,70.27
2018-07-07T19:45:53.258Z,69.65
2018-07-07T19:48:21.342Z,70.49
2018-07-07T19:50:49.893Z,70.56
2018-07-07T19:53:18.129Z,69.90
2018-07-07T19:55:46.107Z,70.56
2018-07-07T19:58:14.107Z,70.96
2018-07-07T20:00:42.080Z,71.27
2018-07-07T20:03:10.060Z,71.24
2018-07-07T20:05:37.978Z,71.25
2018-07-07T20:08:05.962Z,71.47
2018-07-07T20:10:33.921Z,71.10
2018-07-07T20:13:02.006Z,71.90
2018-07-07T20:15:41.245Z,72.89
2018-07-07T20:18:09.299Z,72.69
2018-07-07T20:20:43.297Z,72.98
2018-07-07T20:23:13.633Z,72.25
2018-07-07T20:25:41.949Z,72.20
2018-07-07T20:28:15.544Z,71.32
2018-07-07T20:30:43.554Z,71.85
2018-07-07T20:33:11.479Z,71.07
2018-07-07T20:35:39.657Z,71.14
2018-07-07T20:38:07.778Z,70.95
2018-07-07T20:40:35.757Z,70.69
2018-07-07T20:43:03.822Z,69.92
2018-07-07T20:45:31.878Z,69.38
2018-07-07T20:47:59.834Z,70.20
2018-07-07T20:50:28.001Z,70.60
2018-07-07T20:52:56.190Z,70.76
2018-07-07T20:55:24.147Z,71.02
2018-07-07T20:57:52.502Z,70.84
2018-07-07T21:00:20.564Z,70.99
2018-07-07T21:02:48.538Z,71.78
2018-07-07T21:05:16.607Z,71.67
2018-07-07T21:07:44.782Z,71.59
2018-07-07T21:10:12.860Z,71.12
2018-07-07T21:12:41.148Z,71.82
2018-07-07T21:15:09.323Z,70.67
2018-07-07T21:17:37.358Z,70.92
2018-07-07T21:20:05.516Z,71.85
2018-07-07T21:22:33.580Z,72.78
2018-07-07T21:25:01.681Z,71.84
2018-07-07T21:27:29.825Z,71.60
2018-07-07T21:29:58.137Z,72.91
2018-07-07T21:32:26.201Z,73.44
2018-07-07T21:34:54.229Z,73.69
2018-07-07T21:37:22.284Z,73.26
2018-07-07T21:39:50.366Z,72.29
2018-07-07T21:42:18.307Z,71.12
2018-07-07T21:44:46.339Z,70.69
2018-07-07T21:47:14.358Z,70.02
2018-07-07T21:49:42.471Z,70.38
2018-07-07T21:52:10.547Z,70.39
2018-07-07T21:54:38.565Z,69.99
2018-07-07T21:57:06.603Z,69.93
2018-07-07T21:59:34.615Z,70.05
2018-07-07T22:02:08.297Z,69.85
2018-07-07T22:04:41.892Z,68.89
2018-07-07T22:07:15.338Z,69.45
2018-07-07T22:09:43.755Z,69.82
2018-07-07T22:12:11.977Z,70.40
2018-07-07T22:14:40.033Z,70.23
2018-07-07T22:17:08.146Z,70.61
2018-07-07T22:19:36.185Z,70.60
2018-07-07T22:22:07.383Z,71.81
2018-07-07T22:24:35.589Z,72.18
2018-07-07T22:27:05.763Z,72.55
2018-07-07T22:29:33.890Z,73.48
2018-07-07T22:32:03.368Z,74.59
2018-07-07T22:34:32.644Z,75.01
2018-07-07T22:37:01.243Z,75.97
2018-07-07T22:39:32.688Z,76.42
2018-07-07T22:42:02.040Z,76.57
2018-07-07T22:44:30.300Z,78.42
2018-07-07T22:46:58.399Z,79.29
2018-07-07T22:49:26.995Z,80.39
2018-07-07T22:51:55.138Z,78.79
2018-07-07T22:54:23.283Z,80.26
2018-07-07T22:56:51.294Z,80.99
2018-07-07T22:59:19.356Z,81.74
2018-07-07T23:01:47.337Z,80.55
2018-07-07T23:04:15.342Z,82.35
2018-07-07T23:06:44.225Z,82.49
2018-07-07T23:09:13.408Z,83.31
2018-07-07T23:11:41.448Z,82.22
2018-07-07T23:14:09.417Z,82.37
2018-07-07T23:16:39.571Z,82.15
2018-07-07T23:19:07.922Z,80.43
2018-07-07T23:21:35.838Z,80.54
2018-07-07T23:24:04.273Z,80.79
2018-07-07T23:26:32.382Z,80.84
2018-07-07T23:29:01.414Z,80.44
2018-07-07T23:31:29.406Z,80.57
2018-07-07T23:33:57.472Z,80.69
2018-07-07T23:36:25.505Z,80.62
2018-07-07T23:38:53.481Z,80.78
2018-07-07T23:41:22.431Z,80.65
2018-07-07T23:43:50.496Z,79.29
2018-07-07T23:46:18.462Z,80.34
2018-07-07T23:48:46.522Z,80.32
2018-07-07T23:51:14.571Z,80.33
2018-07-07T23:53:42.499Z,80.12
2018-07-07T23:56:10.438Z,80.54
2018-07-07T23:58:38.406Z,79.50
